Time;durP1;ratioP1;P1;durP2;ratioP2;P2;SDS_P1;SDS_P2;PMS_P1;PMS_P2;Temp;Humidity;BMP_temperature;BMP_pressure;BME280_temperature;BME280_humidity;BME280_pressure;Samples;Min_cycle;Max_cycle;Signal;HPM_P1;HPM_P2
2022/09/25 00:01:42;;;;;;;;;;;;;;;16.20;76.30;100169.44;5067659;28;1359;-82
2022/09/25 00:04:07;;;;;;;;;;;;;;;16.19;76.01;100176.91;5058952;28;1412;-81
2022/09/25 00:06:32;;;;;;;;;;;;;;;16.18;75.97;100180.81;5058252;28;1291;-82
2022/09/25 00:08:58;;;;;;;;;;;;;;;16.19;75.49;100187.97;5074163;28;1716;-82
2022/09/25 00:11:28;;;;;;;;;;;;;;;16.18;75.85;100175.28;5079543;28;1660;-82
2022/09/25 00:13:54;;;;;;;;;;;;;;;16.19;75.83;100182.44;5052693;28;1531;-79
2022/09/25 00:16:21;;;;;;;;;;;;;;;16.19;76.23;100184.38;5058556;28;1933;-79
2022/09/25 00:21:30;;;;;;;;;;;;;;;16.19;75.78;100182.44;5069378;28;1419;-82
2022/09/25 00:23:59;;;;;;;;;;;;;;;16.20;76.17;100175.78;5061658;28;1642;-79
2022/09/25 00:26:26;;;;;;;;;;;;;;;16.18;75.92;100175.28;5062075;28;1204;-82
2022/09/25 00:28:52;;;;;;;;;;;;;;;16.20;76.08;100178.53;5043724;28;1378;-82
2022/09/25 00:31:18;;;;;;;;;;;;;;;16.19;76.01;100171.41;5049418;28;1413;-80
2022/09/25 00:33:43;;;;;;;;;;;;;;;16.20;76.11;100175.78;5067308;28;1618;-80
2022/09/25 00:36:09;;;;;;;;;;;;;;;16.19;76.23;100171.41;5062284;28;1965;-80
2022/09/25 00:38:35;;;;;;;;;;;;;;;16.18;76.00;100169.78;5064348;28;1677;-82
2022/09/25 00:41:00;;;;;;;;;;;;;;;16.19;76.06;100165.88;5066547;28;1366;-82
2022/09/25 00:43:36;;;;;;;;;;;;;;;16.20;76.28;100166.69;5074867;28;1366;-82
2022/09/25 00:46:01;;;;;;;;;;;;;;;16.17;76.21;100159.84;5060802;28;1364;-80
2022/09/25 00:48:28;;;;;;;;;;;;;;;16.18;75.65;100161.50;5054419;28;1632;-79
2022/09/25 00:50:56;;;;;;;;;;;;;;;16.18;75.95;100167.00;5068136;28;1820;-80
2022/09/25 00:53:30;;;;;;;;;;;;;;;16.18;75.63;100164.25;5078132;28;1156;-82
2022/09/25 00:55:56;;;;;;;;;;;;;;;16.18;75.88;100167.00;5044261;28;1952;-83
2022/09/25 00:58:23;;;;;;;;;;;;;;;16.19;76.20;100159.53;5059048;28;1705;-81
2022/09/25 01:00:50;;;;;;;;;;;;;;;16.18;76.44;100163.44;5066135;28;1588;-82
2022/09/25 01:03:16;;;;;;;;;;;;;;;16.18;76.08;100172.53;5056317;28;1773;-82
2022/09/25 01:05:43;;;;;;;;;;;;;;;16.17;76.16;100170.91;5066957;28;1581;-82
2022/09/25 01:08:10;;;;;;;;;;;;;;;16.18;75.91;100168.97;5045552;28;1578;-80
2022/09/25 01:10:36;;;;;;;;;;;;;;;16.17;76.30;100168.16;5064793;28;1392;-80
2022/09/25 01:13:01;;;;;;;;;;;;;;;16.18;76.21;100163.44;5064170;28;1621;-80
2022/09/25 01:15:30;;;;;;;;;;;;;;;16.18;75.82;100160.66;5074516;28;1221;-78
2022/09/25 01:18:05;;;;;;;;;;;;;;;16.17;75.85;100165.38;5050675;28;1914;-82
2022/09/25 01:20:57;;;;;;;;;;;;;;;16.17;76.00;100162.63;5059795;28;1803;-79
2022/09/25 01:23:26;;;;;;;;;;;;;;;16.18;75.82;100160.66;5050279;28;1432;-82
2022/09/25 01:26:03;;;;;;;;;;;;;;;16.18;75.70;100167.00;5074003;28;1393;-81
2022/09/25 01:28:34;;;;;;;;;;;;;;;16.16;75.94;100163.75;5057334;28;1342;-81
2022/09/25 01:31:08;;;;;;;;;;;;;;;16.18;75.82;100164.25;5044277;28;1318;-79
2022/09/25 01:33:35;;;;;;;;;;;;;;;16.17;76.03;100165.38;5066516;28;1456;-80
2022/09/25 01:36:01;;;;;;;;;;;;;;;16.18;75.92;100163.44;5062423;28;1878;-82
2022/09/25 01:38:44;;;;;;;;;;;;;;;16.17;75.78;100167.31;5061048;28;1349;-82
2022/09/25 01:41:12;;;;;;;;;;;;;;;16.16;75.51;100172.03;5075089;28;1480;-79
2022/09/25 01:43:43;;;;;;;;;;;;;;;16.18;75.89;100174.47;5069736;28;1523;-80
2022/09/25 01:46:18;;;;;;;;;;;;;;;16.17;75.96;100168.16;5058213;28;1891;-82
2022/09/25 01:48:44;;;;;;;;;;;;;;;16.16;76.09;100161.00;5071132;28;1606;-80
2022/09/25 01:51:15;;;;;;;;;;;;;;;16.16;76.16;100163.75;5068270;28;1337;-80
2022/09/25 01:53:50;;;;;;;;;;;;;;;16.16;76.06;100163.75;5060251;28;1696;-80
2022/09/25 01:56:32;;;;;;;;;;;;;;;16.16;76.07;100166.50;5068874;28;1971;-81
2022/09/25 01:59:02;;;;;;;;;;;;;;;16.16;75.64;100163.75;5065555;28;1680;-83
2022/09/25 02:01:33;;;;;;;;;;;;;;;16.16;75.80;100161.00;5067637;28;1347;-80
2022/09/25 02:04:03;;;;;;;;;;;;;;;16.17;76.12;100161.81;5068022;28;1640;-79
2022/09/25 02:06:29;;;;;;;;;;;;;;;16.16;76.09;100165.72;5058638;28;1410;-81
2022/09/25 02:08:59;;;;;;;;;;;;;;;16.15;75.55;100156.63;5077706;28;1441;-82
2022/09/25 02:11:27;;;;;;;;;;;;;;;16.15;75.85;100164.91;5071277;28;1304;-81
2022/09/25 02:13:56;;;;;;;;;;;;;;;16.16;75.60;100172.03;5057210;28;1557;-82
2022/09/25 02:16:26;;;;;;;;;;;;;;;16.16;75.84;100162.97;5069803;28;1893;-80
2022/09/25 02:21:44;;;;;;;;;;;;;;;16.16;76.08;100160.22;5043483;28;1724;-82
2022/09/25 02:24:12;;;;;;;;;;;;;;;16.16;76.09;100161.00;5044773;28;1639;-83
2022/09/25 02:26:38;;;;;;;;;;;;;;;16.16;75.71;100165.72;5058749;28;1768;-82
2022/09/25 02:29:03;;;;;;;;;;;;;;;16.16;75.73;100165.72;5065455;28;1430;-82
2022/09/25 02:31:35;;;;;;;;;;;;;;;16.15;75.82;100167.69;5066423;28;1351;-82
2022/09/25 02:34:00;;;;;;;;;;;;;;;16.15;75.60;100167.69;5065526;28;1306;-79
2022/09/25 02:36:25;;;;;;;;;;;;;;;16.15;75.82;100162.16;5046237;28;1898;-79
2022/09/25 02:38:52;;;;;;;;;;;;;;;16.14;76.16;100155.00;5066765;28;1445;-79
2022/09/25 02:41:20;;;;;;;;;;;;;;;16.15;75.64;100159.41;5076100;28;1490;-79
2022/09/25 02:43:45;;;;;;;;;;;;;;;16.14;75.85;100157.78;5056752;28;1311;-80
2022/09/25 02:46:25;;;;;;;;;;;;;;;16.15;75.99;100158.59;5071379;28;1080;-80
2022/09/25 02:48:53;;;;;;;;;;;;;;;16.15;75.91;100164.91;5073793;23;3791;-83
2022/09/25 02:51:23;;;;;;;;;;;;;;;16.16;76.10;100162.97;5104894;28;1438;-83
2022/09/25 02:53:51;;;;;;;;;;;;;;;16.16;75.73;100171.25;5104527;28;1461;-83
2022/09/25 02:56:27;;;;;;;;;;;;;;;16.15;75.98;100178.72;5097365;28;1965;-83
2022/09/25 02:58:55;;;;;;;;;;;;;;;16.15;75.81;100170.44;5103781;28;1529;-83
2022/09/25 03:01:22;;;;;;;;;;;;;;;16.15;75.75;100164.91;5076099;28;1447;-85
2022/09/25 03:03:48;;;;;;;;;;;;;;;16.14;75.91;100166.06;5065075;28;1408;-85
2022/09/25 03:06:14;;;;;;;;;;;;;;;16.15;75.47;100164.09;5077639;28;1726;-85
2022/09/25 03:08:43;;;;;;;;;;;;;;;16.15;75.93;100164.09;5084285;28;1562;-85
2022/09/25 03:11:13;;;;;;;;;;;;;;;16.15;75.69;100164.09;5090479;28;1452;-84
2022/09/25 03:13:39;;;;;;;;;;;;;;;16.15;75.90;100175.97;5085682;28;1391;-84
2022/09/25 03:16:17;;;;;;;;;;;;;;;16.15;75.63;100166.88;5091148;28;1959;-84
2022/09/25 03:18:42;;;;;;;;;;;;;;;16.14;75.93;100168.81;5094263;28;1412;-84
2022/09/25 03:21:08;;;;;;;;;;;;;;;16.14;75.94;100163.28;5096205;28;1437;-83
2022/09/25 03:23:33;;;;;;;;;;;;;;;16.15;75.91;100164.91;5093223;28;1301;-84
2022/09/25 03:25:58;;;;;;;;;;;;;;;16.15;75.90;100166.88;5105713;28;1500;-84
2022/09/25 03:28:24;;;;;;;;;;;;;;;16.14;75.82;100163.28;5088635;28;1529;-84
2022/09/25 03:31:02;;;;;;;;;;;;;;;16.14;75.62;100156.97;5101942;28;1467;-84
2022/09/25 03:33:28;;;;;;;;;;;;;;;16.15;76.03;100164.09;5096343;28;1436;-84
2022/09/25 03:36:01;;;;;;;;;;;;;;;16.14;75.84;100156.97;5093729;28;1933;-85
2022/09/25 03:38:26;;;;;;;;;;;;;;;16.13;75.60;100150.63;5086269;28;1704;-85
2022/09/25 03:40:51;;;;;;;;;;;;;;;16.14;76.10;100148.66;5083379;28;1427;-85
2022/09/25 03:43:16;;;;;;;;;;;;;;;16.14;75.78;100151.44;5077734;28;1507;-85
2022/09/25 03:45:41;;;;;;;;;;;;;;;16.13;76.01;100149.81;5085458;28;1489;-85
2022/09/25 03:48:06;;;;;;;;;;;;;;;16.15;75.74;100155.81;5085285;28;1932;-83
2022/09/25 03:50:32;;;;;;;;;;;;;;;16.14;75.90;100155.00;5079832;28;1606;-85
2022/09/25 03:52:57;;;;;;;;;;;;;;;16.13;75.87;100150.63;5094435;28;1239;-84
2022/09/25 03:55:23;;;;;;;;;;;;;;;16.13;75.44;100153.38;5085509;28;1496;-83
2022/09/25 03:57:49;;;;;;;;;;;;;;;16.13;75.89;100156.13;5096426;28;1962;-84
2022/09/25 04:00:15;;;;;;;;;;;;;;;16.13;75.80;100153.38;5102300;28;1506;-85
2022/09/25 04:02:41;;;;;;;;;;;;;;;16.13;75.45;100145.09;5070209;28;1412;-85
2022/09/25 04:05:06;;;;;;;;;;;;;;;16.13;75.92;100150.63;5066903;28;1527;-85
2022/09/25 04:07:31;;;;;;;;;;;;;;;16.14;76.10;100152.25;5071928;28;1396;-83
2022/09/25 04:09:56;;;;;;;;;;;;;;;16.14;75.78;100151.44;5094141;28;1456;-84
2022/09/25 04:12:21;;;;;;;;;;;;;;;16.14;75.96;100146.72;5090856;28;1416;-84
2022/09/25 04:14:46;;;;;;;;;;;;;;;16.15;75.85;100155.81;5087773;28;1177;-85
2022/09/25 04:17:12;;;;;;;;;;;;;;;16.15;75.77;100150.31;5086783;28;1890;-84
2022/09/25 04:19:37;;;;;;;;;;;;;;;16.15;76.00;100147.53;5096251;28;1417;-83
2022/09/25 04:22:02;;;;;;;;;;;;;;;16.15;75.78;100148.34;5070539;28;1500;-84
2022/09/25 04:27:11;;;;;;;;;;;;;;;16.16;75.85;100140.88;5098773;28;1437;-86
2022/09/25 04:29:36;;;;;;;;;;;;;;;16.17;76.07;100150.75;5096838;28;1456;-83
2022/09/25 04:34:46;;;;;;;;;;;;;;;16.16;75.82;100144.44;5080238;28;1423;-84
2022/09/25 04:37:12;;;;;;;;;;;;;;;16.16;75.56;100146.41;5089540;28;1870;-84
2022/09/25 04:39:38;;;;;;;;;;;;;;;16.16;75.73;100149.94;5081172;28;1415;-84
2022/09/25 04:42:03;;;;;;;;;;;;;;;16.15;75.64;100145.59;5099459;28;1420;-84
2022/09/25 04:44:28;;;;;;;;;;;;;;;16.16;75.91;100147.19;5083742;28;1536;-84
2022/09/25 04:46:53;;;;;;;;;;;;;;;16.17;75.65;100148.00;5079942;28;1548;-83
2022/09/25 04:49:18;;;;;;;;;;;;;;;16.16;75.68;100147.19;5087731;28;1213;-84
2022/09/25 04:51:43;;;;;;;;;;;;;;;16.15;75.67;100144.78;5095445;28;1560;-84
2022/09/25 04:54:09;;;;;;;;;;;;;;;16.16;75.60;100151.94;5091031;28;1524;-84
2022/09/25 04:56:34;;;;;;;;;;;;;;;16.16;75.99;100157.44;5086148;28;1941;-83
2022/09/25 04:58:59;;;;;;;;;;;;;;;16.16;75.81;100155.47;5071462;28;1607;-84
2022/09/25 05:01:24;;;;;;;;;;;;;;;16.15;75.71;100159.41;5093954;28;1386;-84
2022/09/25 05:03:52;;;;;;;;;;;;;;;16.16;75.56;100149.94;5087165;28;1380;-83
2022/09/25 05:06:17;;;;;;;;;;;;;;;16.16;75.96;100143.66;5084471;28;1336;-84
2022/09/25 05:08:42;;;;;;;;;;;;;;;16.16;75.53;100144.44;5079290;28;1390;-83
2022/09/25 05:11:07;;;;;;;;;;;;;;;16.16;75.98;100154.69;5087157;28;1427;-84
2022/09/25 05:13:32;;;;;;;;;;;;;;;16.16;76.02;100146.41;5096569;28;1475;-84
2022/09/25 05:15:58;;;;;;;;;;;;;;;16.17;75.70;100145.22;5085472;28;2016;-84
2022/09/25 05:18:23;;;;;;;;;;;;;;;16.15;75.57;100148.34;5084235;28;1277;-84
2022/09/25 05:20:49;;;;;;;;;;;;;;;16.17;75.56;100145.22;5085220;28;1459;-83
2022/09/25 05:23:15;;;;;;;;;;;;;;;16.16;75.80;100147.19;5084107;28;1403;-84
2022/09/25 05:25:40;;;;;;;;;;;;;;;16.15;75.79;100142.81;5085059;28;1415;-84
2022/09/25 05:28:05;;;;;;;;;;;;;;;16.17;76.02;100148.00;5088556;28;1573;-83
2022/09/25 05:30:32;;;;;;;;;;;;;;;16.15;75.50;100148.34;5091236;28;1286;-83
2022/09/25 05:32:57;;;;;;;;;;;;;;;16.16;75.68;100158.22;5079963;28;1396;-83
2022/09/25 05:35:23;;;;;;;;;;;;;;;16.14;75.14;100152.25;5084230;28;1758;-84
2022/09/25 05:37:48;;;;;;;;;;;;;;;16.15;76.06;100148.34;5099780;28;1870;-84
2022/09/25 05:40:14;;;;;;;;;;;;;;;16.15;75.72;100147.53;5090915;28;1562;-84
2022/09/25 05:42:39;;;;;;;;;;;;;;;16.15;75.42;100144.78;5099555;28;1209;-84
2022/09/25 05:45:05;;;;;;;;;;;;;;;16.14;76.03;100151.44;5090399;28;1416;-84
2022/09/25 05:47:30;;;;;;;;;;;;;;;16.15;75.85;100144.78;5089149;28;1198;-84
2022/09/25 05:49:55;;;;;;;;;;;;;;;16.15;75.74;100150.31;5087925;28;1464;-84
2022/09/25 05:52:20;;;;;;;;;;;;;;;16.16;75.91;100151.94;5072749;28;1528;-83
2022/09/25 05:54:45;;;;;;;;;;;;;;;16.15;75.93;100156.63;5085783;28;1398;-84
2022/09/25 05:57:10;;;;;;;;;;;;;;;16.15;75.63;100162.16;5080103;28;1965;-84
2022/09/25 05:59:36;;;;;;;;;;;;;;;16.14;75.93;100149.47;5080224;28;1576;-83
2022/09/25 06:02:01;;;;;;;;;;;;;;;16.14;76.13;100145.91;5079536;28;1325;-84
2022/09/25 06:04:26;;;;;;;;;;;;;;;16.14;76.03;100151.44;5078632;28;1757;-84
2022/09/25 06:06:51;;;;;;;;;;;;;;;16.14;76.08;100148.66;5086546;28;1395;-84
2022/09/25 06:09:16;;;;;;;;;;;;;;;16.14;75.62;100146.72;5080718;28;1423;-83
2022/09/25 06:11:46;;;;;;;;;;;;;;;16.15;75.72;100153.06;5077912;28;1193;-84
2022/09/25 06:14:12;;;;;;;;;;;;;;;16.15;75.83;100144.78;5072953;28;1339;-83
2022/09/25 06:16:37;;;;;;;;;;;;;;;16.13;75.76;100145.09;5076225;28;1933;-84
2022/09/25 06:19:02;;;;;;;;;;;;;;;16.15;75.64;100145.59;5075037;28;1331;-85
2022/09/25 06:21:27;;;;;;;;;;;;;;;16.14;75.90;100149.47;5073022;28;1465;-85
2022/09/25 06:23:53;;;;;;;;;;;;;;;16.15;75.65;100148.34;5077949;28;1253;-86
2022/09/25 06:26:18;;;;;;;;;;;;;;;16.14;75.90;100152.25;5076118;28;1308;-85
2022/09/25 06:28:43;;;;;;;;;;;;;;;16.14;75.53;100155.00;5079222;28;1274;-84
2022/09/25 06:31:08;;;;;;;;;;;;;;;16.16;76.13;100151.94;5070005;28;1072;-83
2022/09/25 06:33:34;;;;;;;;;;;;;;;16.14;75.96;100152.25;5070519;28;1526;-83
2022/09/25 06:35:59;;;;;;;;;;;;;;;16.13;75.92;100150.63;5078926;28;1941;-84
2022/09/25 06:38:24;;;;;;;;;;;;;;;16.14;75.77;100155.00;5082856;28;1524;-83
2022/09/25 06:40:49;;;;;;;;;;;;;;;16.13;75.48;100158.09;5088001;28;1424;-84
2022/09/25 06:43:15;;;;;;;;;;;;;;;16.14;75.71;100154.19;5086082;28;1220;-84
2022/09/25 06:45:41;;;;;;;;;;;;;;;16.15;75.49;100153.06;5080703;28;1299;-84
2022/09/25 06:48:08;;;;;;;;;;;;;;;16.14;75.85;100159.72;5092159;28;1257;-84
2022/09/25 06:50:39;;;;;;;;;;;;;;;16.13;75.66;100153.38;5090882;28;1392;-84
2022/09/25 06:53:04;;;;;;;;;;;;;;;16.12;75.79;100154.50;5090691;28;1373;-84
2022/09/25 06:55:33;;;;;;;;;;;;;;;16.13;75.93;100158.91;5084605;28;1299;-83
2022/09/25 06:57:59;;;;;;;;;;;;;;;16.14;75.67;100163.28;5093567;28;1941;-83
2022/09/25 07:00:24;;;;;;;;;;;;;;;16.13;75.92;100161.66;5089065;28;1471;-83
2022/09/25 07:05:33;;;;;;;;;;;;;;;16.12;75.97;100165.56;5076887;28;1416;-81
2022/09/25 07:07:58;;;;;;;;;;;;;;;16.14;76.16;100165.25;5069931;28;1318;-82
2022/09/25 07:10:24;;;;;;;;;;;;;;;16.13;76.10;100167.19;5081782;28;1591;-82
2022/09/25 07:12:49;;;;;;;;;;;;;;;16.14;76.27;100165.25;5063660;28;1562;-83
2022/09/25 07:15:14;;;;;;;;;;;;;;;16.16;76.38;100168.50;5081261;28;1921;-83
2022/09/25 07:17:42;;;;;;;;;;;;;;;16.16;76.18;100166.50;5072057;28;1882;-83
2022/09/25 07:20:09;;;;;;;;;;;;;;;16.15;76.10;100166.88;5097172;28;1407;-83
2022/09/25 07:22:34;;;;;;;;;;;;;;;16.16;76.09;100165.72;5071521;28;1795;-83
2022/09/25 07:24:59;;;;;;;;;;;;;;;16.15;76.37;100162.16;5090430;28;1553;-83
2022/09/25 07:27:24;;;;;;;;;;;;;;;16.15;76.20;100169.63;5085484;28;1413;-83
2022/09/25 07:29:50;;;;;;;;;;;;;;;16.15;76.11;100164.91;5074388;28;1469;-83
2022/09/25 07:32:15;;;;;;;;;;;;;;;16.15;75.98;100162.16;5070147;28;1487;-83
2022/09/25 07:34:41;;;;;;;;;;;;;;;16.16;75.86;100166.50;5074609;28;1628;-83
2022/09/25 07:37:06;;;;;;;;;;;;;;;16.16;76.21;100162.97;5075905;28;1894;-83
2022/09/25 07:39:31;;;;;;;;;;;;;;;16.16;76.28;100165.72;5085719;28;1489;-83
2022/09/25 07:41:56;;;;;;;;;;;;;;;16.16;76.13;100160.22;5079355;28;1662;-83
2022/09/25 07:44:23;;;;;;;;;;;;;;;16.17;76.26;100172.84;5065900;28;1604;-83
2022/09/25 07:46:48;;;;;;;;;;;;;;;16.17;76.06;100181.13;5089175;28;1332;-83
2022/09/25 07:49:13;;;;;;;;;;;;;;;16.16;76.11;100180.31;5071660;28;1513;-83
2022/09/25 07:51:38;;;;;;;;;;;;;;;16.16;76.10;100165.72;5064238;28;868;-83
2022/09/25 07:54:03;;;;;;;;;;;;;;;16.16;76.11;100177.56;5066746;28;1973;-83
2022/09/25 07:56:28;;;;;;;;;;;;;;;16.19;76.08;100181.63;5081427;28;1910;-83
2022/09/25 07:58:53;;;;;;;;;;;;;;;16.17;76.13;100179.19;5074538;28;1659;-83
2022/09/25 08:01:18;;;;;;;;;;;;;;;16.16;75.76;100177.56;5062827;28;1055;-83
2022/09/25 08:03:44;;;;;;;;;;;;;;;16.18;76.09;100174.47;5063030;28;1577;-83
2022/09/25 08:06:12;;;;;;;;;;;;;;;16.18;76.26;100171.72;5076814;28;1886;-83
2022/09/25 08:08:37;;;;;;;;;;;;;;;16.17;76.15;100181.94;5066513;28;1997;-83
2022/09/25 08:11:05;;;;;;;;;;;;;;;16.18;76.20;100185.53;5073501;28;1160;-83
2022/09/25 08:13:31;;;;;;;;;;;;;;;16.18;76.06;100189.09;5077701;28;1881;-83
2022/09/25 08:15:56;;;;;;;;;;;;;;;16.17;76.01;100190.22;5079675;28;1930;-83
2022/09/25 08:18:21;;;;;;;;;;;;;;;16.19;75.92;100181.63;5069683;28;1668;-83
2022/09/25 08:20:47;;;;;;;;;;;;;;;16.18;76.15;100185.53;5068388;28;1659;-83
2022/09/25 08:23:12;;;;;;;;;;;;;;;16.17;76.30;100181.94;5087715;28;1595;-83
2022/09/25 08:25:37;;;;;;;;;;;;;;;16.17;76.05;100179.19;5075752;28;1393;-83
2022/09/25 08:28:02;;;;;;;;;;;;;;;16.18;76.39;100183.56;5099405;28;2171;-84
2022/09/25 08:30:28;;;;;;;;;;;;;;;16.17;76.33;100178.38;5090434;28;1196;-82
2022/09/25 08:32:53;;;;;;;;;;;;;;;16.18;76.04;100180.00;5086208;28;2152;-85
2022/09/25 08:35:18;;;;;;;;;;;;;;;16.17;75.96;100184.72;5075019;28;1745;-84
2022/09/25 08:37:47;;;;;;;;;;;;;;;16.18;76.05;100182.75;5086338;28;1964;-84
2022/09/25 08:40:19;;;;;;;;;;;;;;;16.18;76.04;100183.56;5087767;28;1997;-84
2022/09/25 08:42:46;;;;;;;;;;;;;;;16.18;75.86;100191.84;5085633;28;1588;-84
2022/09/25 08:50:50;;;;;;;;;;;;;;;16.20;75.79;100174.97;5100380;22;2026;-81
2022/09/25 08:53:22;;;;;;;;;;;;;;;16.20;76.03;100172.22;5083099;28;1509;-80
2022/09/25 08:58:41;;;;;;;;;;;;;;;16.19;76.18;100168.63;5065525;28;733;-81
2022/09/25 09:01:07;;;;;;;;;;;;;;;16.20;76.23;100172.22;5083265;28;1718;-81
2022/09/25 09:03:37;;;;;;;;;;;;;;;16.20;76.25;100173.03;5083622;28;868;-80
2022/09/25 09:06:05;;;;;;;;;;;;;;;16.19;75.91;100174.16;5082559;28;1566;-80
2022/09/25 09:08:33;;;;;;;;;;;;;;;16.19;75.89;100185.19;5084292;28;1077;-81
2022/09/25 09:11:00;;;;;;;;;;;;;;;16.20;75.85;100172.22;5086279;28;1719;-82
2022/09/25 09:13:40;;;;;;;;;;;;;;;16.20;75.83;100177.72;5068125;28;1679;-80
2022/09/25 09:16:24;;;;;;;;;;;;;;;16.21;75.98;100179.38;5062653;28;1948;-80
2022/09/25 09:18:49;;;;;;;;;;;;;;;16.20;75.70;100186.03;5063360;28;1221;-80
2022/09/25 09:21:33;;;;;;;;;;;;;;;16.20;75.78;100178.53;5065933;28;1220;-78
2022/09/25 09:24:07;;;;;;;;;;;;;;;16.21;75.85;100180.19;5079566;28;1373;-81
2022/09/25 09:26:51;;;;;;;;;;;;;;;16.21;76.11;100180.19;5080734;28;2101;-81
2022/09/25 09:29:21;;;;;;;;;;;;;;;16.21;75.73;100180.19;5084061;28;1665;-81
2022/09/25 09:32:15;;;;;;;;;;;;;;;16.22;75.85;100181.81;5083433;28;1599;-80
2022/09/25 09:34:59;;;;;;;;;;;;;;;16.21;75.90;100180.19;5061964;28;1602;-80
2022/09/25 09:37:44;;;;;;;;;;;;;;;16.20;75.71;100186.84;5083024;28;1948;-80
2022/09/25 09:40:17;;;;;;;;;;;;;;;16.22;75.90;100181.00;5048331;28;1700;-80
2022/09/25 09:42:52;;;;;;;;;;;;;;;16.22;75.71;100181.81;5079252;28;1739;-80
2022/09/25 09:45:32;;;;;;;;;;;;;;;16.22;75.60;100181.00;5077442;28;1556;-81
2022/09/25 09:48:02;;;;;;;;;;;;;;;16.22;76.11;100175.47;5081003;28;1563;-80
2022/09/25 09:50:35;;;;;;;;;;;;;;;16.22;76.19;100176.28;5077750;28;1892;-81
2022/09/25 09:53:02;;;;;;;;;;;;;;;16.23;76.08;100177.09;5081243;28;1579;-80
2022/09/25 09:55:35;;;;;;;;;;;;;;;16.23;75.86;100180.66;5081461;28;1528;-81
2022/09/25 09:58:04;;;;;;;;;;;;;;;16.22;75.98;100173.50;5077142;28;1941;-81
2022/09/25 10:00:31;;;;;;;;;;;;;;;16.23;75.75;100177.91;5068578;28;1748;-80
2022/09/25 10:03:16;;;;;;;;;;;;;;;16.23;75.78;100177.09;5065066;28;1603;-81
2022/09/25 10:05:41;;;;;;;;;;;;;;;16.25;75.73;100181.13;5065773;28;2005;-82
2022/09/25 10:08:08;;;;;;;;;;;;;;;16.25;75.53;100175.59;5061632;28;1526;-81
2022/09/25 10:10:35;;;;;;;;;;;;;;;16.25;75.96;100177.56;5076066;28;1710;-81
2022/09/25 10:13:05;;;;;;;;;;;;;;;16.25;75.82;100180.31;5065969;28;1630;-81
2022/09/25 10:15:41;;;;;;;;;;;;;;;16.25;76.12;100174.78;5083364;28;1526;-81
2022/09/25 10:18:07;;;;;;;;;;;;;;;16.25;75.94;100169.28;5073118;28;1956;-81
2022/09/25 10:20:37;;;;;;;;;;;;;;;16.25;76.00;100174.78;5074019;28;1552;-83
2022/09/25 10:23:03;;;;;;;;;;;;;;;16.23;75.70;100175.16;5078760;28;1299;-81
2022/09/25 10:25:37;;;;;;;;;;;;;;;16.23;75.91;100180.66;5066978;28;1520;-81
2022/09/25 10:28:19;;;;;;;;;;;;;;;16.24;76.21;100174.00;5068267;28;1944;-82
2022/09/25 10:30:45;;;;;;;;;;;;;;;16.25;76.12;100169.28;5063434;28;2068;-80
2022/09/25 10:33:15;;;;;;;;;;;;;;;16.25;76.00;100174.78;5064776;28;2101;-82
2022/09/25 10:35:42;;;;;;;;;;;;;;;16.25;76.00;100180.31;5074353;28;1598;-82
2022/09/25 10:38:25;;;;;;;;;;;;;;;16.24;76.40;100185.06;5078739;28;2386;-82
2022/09/25 10:41:09;;;;;;;;;;;;;;;16.25;75.95;100181.13;5065592;28;1720;-83
2022/09/25 10:43:48;;;;;;;;;;;;;;;16.27;76.09;100183.56;5076767;28;1562;-82
2022/09/25 10:46:14;;;;;;;;;;;;;;;16.27;75.70;100184.38;5074553;28;1847;-79
2022/09/25 10:51:24;;;;;;;;;;;;;;;16.26;76.17;100177.22;5078599;28;1782;-81
2022/09/25 10:53:51;;;;;;;;;;;;;;;16.26;75.94;100177.22;5081683;28;1946;-80
2022/09/25 10:56:19;;;;;;;;;;;;;;;16.26;76.18;100177.22;5071978;28;2060;-82
2022/09/25 10:58:50;;;;;;;;;;;;;;;16.26;76.01;100171.72;5084339;28;1321;-80
2022/09/25 11:01:16;;;;;;;;;;;;;;;16.27;75.71;100170.56;5080991;28;1909;-81
2022/09/25 11:03:44;;;;;;;;;;;;;;;16.28;76.22;100176.91;5081226;28;1882;-81
2022/09/25 11:06:19;;;;;;;;;;;;;;;16.27;76.09;100170.56;5083129;28;1775;-81
2022/09/25 11:08:45;;;;;;;;;;;;;;;16.27;75.95;100167.00;5081111;28;1623;-81
2022/09/25 11:11:11;;;;;;;;;;;;;;;16.28;75.93;100165.88;5083486;28;1735;-82
2022/09/25 11:13:44;;;;;;;;;;;;;;;16.27;76.11;100156.78;5074887;28;1670;-82
2022/09/25 11:16:10;;;;;;;;;;;;;;;16.28;75.63;100152.88;5073396;28;2108;-81
2022/09/25 11:18:39;;;;;;;;;;;;;;;16.29;76.01;100153.69;5081291;28;1853;-82
2022/09/25 11:21:05;;;;;;;;;;;;;;;16.30;75.50;100165.53;5080760;28;1873;-81
2022/09/25 11:23:34;;;;;;;;;;;;;;;16.30;75.98;100154.50;5085164;28;1166;-82
2022/09/25 11:26:10;;;;;;;;;;;;;;;16.28;76.15;100150.09;5083434;28;1257;-82
2022/09/25 11:28:47;;;;;;;;;;;;;;;16.28;76.22;100163.09;5083840;28;1278;-81
2022/09/25 11:31:16;;;;;;;;;;;;;;;16.27;75.98;100145.72;5079448;28;1677;-82
2022/09/25 11:33:41;;;;;;;;;;;;;;;16.28;75.97;100152.88;5085716;28;1257;-82
2022/09/25 11:36:21;;;;;;;;;;;;;;;16.28;75.64;100144.59;5086674;28;1999;-82
2022/09/25 11:41:40;;;;;;;;;;;;;;;16.30;76.21;100143.44;5088761;28;615;-81
2022/09/25 11:44:08;;;;;;;;;;;;;;;16.29;76.09;100131.59;5087077;28;1310;-83
2022/09/25 11:46:40;;;;;;;;;;;;;;;16.29;76.12;100128.81;5084179;28;1609;-82
2022/09/25 11:49:15;;;;;;;;;;;;;;;16.30;75.83;100126.88;5088913;28;1248;-83
2022/09/25 11:51:44;;;;;;;;;;;;;;;16.30;76.06;100126.88;5086916;28;1322;-82
2022/09/25 11:54:17;;;;;;;;;;;;;;;16.29;76.02;100126.06;5077161;28;1439;-81
2022/09/25 11:57:05;;;;;;;;;;;;;;;16.30;76.14;100122.16;5089515;28;1891;-80
2022/09/25 11:59:41;;;;;;;;;;;;;;;16.30;75.67;100119.41;5085756;28;1382;-81
2022/09/25 12:02:07;;;;;;;;;;;;;;;16.28;75.98;100116.97;5086815;28;1447;-81
2022/09/25 12:04:45;;;;;;;;;;;;;;;16.28;75.74;100105.91;5090900;28;1145;-81
2022/09/25 12:07:27;;;;;;;;;;;;;;;16.30;76.24;100110.31;5090349;28;769;-79
2022/09/25 12:10:02;;;;;;;;;;;;;;;16.29;75.93;100103.97;5090851;28;1280;-79
2022/09/25 12:13:00;;;;;;;;;;;;;;;16.30;75.84;100107.53;5087882;28;1325;-79
2022/09/25 12:15:36;;;;;;;;;;;;;;;16.30;76.12;100105.59;5060866;28;1468;-79
2022/09/25 12:18:10;;;;;;;;;;;;;;;16.31;75.75;100106.41;5065694;28;1879;-79
2022/09/25 12:20:48;;;;;;;;;;;;;;;16.29;75.98;100106.72;5069315;28;1311;-79
2022/09/25 12:23:26;;;;;;;;;;;;;;;16.30;75.87;100099.25;5070299;28;987;-78
2022/09/25 12:26:01;;;;;;;;;;;;;;;16.30;75.74;100093.75;5061753;28;1418;-78
2022/09/25 12:28:31;;;;;;;;;;;;;;;16.30;75.86;100094.56;5072439;28;1410;-79
2022/09/25 12:31:17;;;;;;;;;;;;;;;16.30;75.81;100090.97;5087691;28;1465;-79
2022/09/25 12:33:52;;;;;;;;;;;;;;;16.28;75.74;100086.59;5087479;28;1212;-78
2022/09/25 12:36:35;;;;;;;;;;;;;;;16.30;75.75;100089.03;5088529;28;1973;-78
2022/09/25 12:39:07;;;;;;;;;;;;;;;16.29;75.83;100081.88;5085932;28;1346;-78
2022/09/25 12:41:34;;;;;;;;;;;;;;;16.30;75.66;100079.94;5082874;28;1449;-78
2022/09/25 12:44:03;;;;;;;;;;;;;;;16.30;75.56;100072.44;5074930;28;1551;-81
2022/09/25 12:46:29;;;;;;;;;;;;;;;16.31;75.79;100071.31;5074474;28;1456;-79
2022/09/25 12:49:01;;;;;;;;;;;;;;;16.31;75.99;100074.06;5086676;28;1232;-79
2022/09/25 12:51:26;;;;;;;;;;;;;;;16.31;76.01;100067.75;5086695;28;1010;-79
2022/09/25 12:53:53;;;;;;;;;;;;;;;16.31;75.51;100074.06;5086631;28;797;-80
2022/09/25 12:56:41;;;;;;;;;;;;;;;16.31;75.39;100085.13;5082299;28;1882;-81
2022/09/25 12:59:12;;;;;;;;;;;;;;;16.31;76.00;100067.75;5077267;28;1339;-81
2022/09/25 13:01:38;;;;;;;;;;;;;;;16.31;75.91;100078.78;5088499;28;1183;-79
2022/09/25 13:04:18;;;;;;;;;;;;;;;16.30;75.63;100072.44;5088156;28;930;-78
2022/09/25 13:06:51;;;;;;;;;;;;;;;16.31;75.90;100073.28;5086184;28;1185;-79
2022/09/25 13:09:29;;;;;;;;;;;;;;;16.31;75.84;100064.97;5083660;28;1193;-79
2022/09/25 13:12:01;;;;;;;;;;;;;;;16.31;75.91;100062.22;5080859;28;2216;-80
2022/09/25 13:14:29;;;;;;;;;;;;;;;16.31;75.58;100059.47;5079411;28;1325;-79
2022/09/25 13:16:55;;;;;;;;;;;;;;;16.31;75.94;100051.97;5080963;28;1894;-80
2022/09/25 13:19:33;;;;;;;;;;;;;;;16.32;75.72;100052.78;5081327;28;1298;-80
2022/09/25 13:22:04;;;;;;;;;;;;;;;16.32;75.95;100055.56;5084405;28;888;-79
2022/09/25 13:24:37;;;;;;;;;;;;;;;16.32;76.06;100050.84;5083745;28;1758;-81